sensor_id;sensor_type;location;lat;lon;timestamp;pressure;altitude;pressure_sealevel;temperature;humidity
44988;BME280;35735;52.226;21.254;2024-02-15T00:02:37;100922.66;;;5.60;97.83
44988;BME280;35735;52.226;21.254;2024-02-15T00:07:39;100929.75;;;5.58;97.41
44988;BME280;35735;52.226;21.254;2024-02-15T00:12:40;100931.41;;;5.54;97.84
44988;BME280;35735;52.226;21.254;2024-02-15T00:17:42;100926.09;;;5.56;97.99
44988;BME280;35735;52.226;21.254;2024-02-15T00:22:43;100923.41;;;5.56;97.97
44988;BME280;35735;52.226;21.254;2024-02-15T00:27:45;100930.41;;;5.51;97.89
44988;BME280;35735;52.226;21.254;2024-02-15T00:32:46;100928.66;;;5.53;98.27
44988;BME280;35735;52.226;21.254;2024-02-15T00:37:47;100929.66;;;5.55;98.66
44988;BME280;35735;52.226;21.254;2024-02-15T00:42:49;100918.78;;;5.50;98.36
44988;BME280;35735;52.226;21.254;2024-02-15T00:47:50;100923.06;;;5.44;98.79
44988;BME280;35735;52.226;21.254;2024-02-15T00:52:51;100922.06;;;5.40;98.72
44988;BME280;35735;52.226;21.254;2024-02-15T00:57:53;100928.25;;;5.37;98.87
44988;BME280;35735;52.226;21.254;2024-02-15T01:02:55;100918.37;;;5.35;98.96
44988;BME280;35735;52.226;21.254;2024-02-15T01:07:56;100920.16;;;5.36;99.23
44988;BME280;35735;52.226;21.254;2024-02-15T01:12:58;100910.38;;;5.36;99.35
44988;BME280;35735;52.226;21.254;2024-02-15T01:17:59;100908.66;;;5.38;99.25
44988;BME280;35735;52.226;21.254;2024-02-15T01:23:00;100909.53;;;5.39;99.28
44988;BME280;35735;52.226;21.254;2024-02-15T01:28:02;100905.03;;;5.36;99.30
44988;BME280;35735;52.226;21.254;2024-02-15T01:33:04;100907.59;;;5.33;99.33
44988;BME280;35735;52.226;21.254;2024-02-15T01:38:05;100907.66;;;5.35;99.54
44988;BME280;35735;52.226;21.254;2024-02-15T01:43:06;100909.44;;;5.36;99.58
44988;BME280;35735;52.226;21.254;2024-02-15T01:48:08;100906.91;;;5.41;99.78
44988;BME280;35735;52.226;21.254;2024-02-15T01:53:09;100895.41;;;5.43;99.47
44988;BME280;35735;52.226;21.254;2024-02-15T01:58:12;100897.00;;;5.36;99.23
44988;BME280;35735;52.226;21.254;2024-02-15T02:03:14;100890.59;;;5.31;99.35
44988;BME280;35735;52.226;21.254;2024-02-15T02:08:16;100888.88;;;5.33;99.35
44988;BME280;35735;52.226;21.254;2024-02-15T02:13:17;100885.06;;;5.25;99.51
44988;BME280;35735;52.226;21.254;2024-02-15T02:18:19;100887.78;;;5.27;99.77
44988;BME280;35735;52.226;21.254;2024-02-15T02:23:21;100881.59;;;5.29;100.00
44988;BME280;35735;52.226;21.254;2024-02-15T02:28:26;100885.16;;;5.28;100.00
44988;BME280;35735;52.226;21.254;2024-02-15T02:33:28;100883.44;;;5.30;100.00
44988;BME280;35735;52.226;21.254;2024-02-15T02:38:29;100878.06;;;5.30;99.99
44988;BME280;35735;52.226;21.254;2024-02-15T02:43:30;100875.53;;;5.35;100.00
44988;BME280;35735;52.226;21.254;2024-02-15T02:48:32;100869.44;;;5.41;100.00
44988;BME280;35735;52.226;21.254;2024-02-15T02:53:33;100876.63;;;5.42;100.00
44988;BME280;35735;52.226;21.254;2024-02-15T02:58:35;100880.22;;;5.44;100.00
44988;BME280;35735;52.226;21.254;2024-02-15T03:03:36;100882.06;;;5.45;100.00
44988;BME280;35735;52.226;21.254;2024-02-15T03:08:38;100885.78;;;5.50;100.00
44988;BME280;35735;52.226;21.254;2024-02-15T03:13:39;100882.22;;;5.51;100.00
44988;BME280;35735;52.226;21.254;2024-02-15T03:18:41;100883.16;;;5.53;100.00
44988;BME280;35735;52.226;21.254;2024-02-15T03:23:42;100891.22;;;5.54;100.00
44988;BME280;35735;52.226;21.254;2024-02-15T03:28:43;100889.44;;;5.53;99.97
44988;BME280;35735;52.226;21.254;2024-02-15T03:33:45;100890.16;;;5.48;99.92
44988;BME280;35735;52.226;21.254;2024-02-15T03:38:46;100889.31;;;5.49;100.00
44988;BME280;35735;52.226;21.254;2024-02-15T03:43:47;100890.34;;;5.54;100.00
44988;BME280;35735;52.226;21.254;2024-02-15T03:48:49;100886.84;;;5.56;100.00
44988;BME280;35735;52.226;21.254;2024-02-15T03:53:50;100895.59;;;5.51;100.00
44988;BME280;35735;52.226;21.254;2024-02-15T03:58:52;100884.75;;;5.45;100.00
44988;BME280;35735;52.226;21.254;2024-02-15T04:03:53;100891.03;;;5.47;100.00
44988;BME280;35735;52.226;21.254;2024-02-15T04:08:54;100887.41;;;5.45;100.00
44988;BME280;35735;52.226;21.254;2024-02-15T04:13:56;100884.75;;;5.45;100.00
44988;BME280;35735;52.226;21.254;2024-02-15T04:18:57;100876.72;;;5.45;100.00
44988;BME280;35735;52.226;21.254;2024-02-15T04:23:58;100875.78;;;5.44;100.00
44988;BME280;35735;52.226;21.254;2024-02-15T04:29:00;100874.88;;;5.44;100.00
44988;BME280;35735;52.226;21.254;2024-02-15T04:34:01;100871.25;;;5.42;100.00
44988;BME280;35735;52.226;21.254;2024-02-15T04:39:02;100870.38;;;5.43;100.00
44988;BME280;35735;52.226;21.254;2024-02-15T04:44:04;100875.78;;;5.44;100.00
44988;BME280;35735;52.226;21.254;2024-02-15T04:49:05;100877.37;;;5.37;100.00
44988;BME280;35735;52.226;21.254;2024-02-15T04:54:07;100879.06;;;5.34;100.00
44988;BME280;35735;52.226;21.254;2024-02-15T04:59:09;100879.09;;;5.35;100.00
44988;BME280;35735;52.226;21.254;2024-02-15T05:04:11;100880.84;;;5.33;100.00
44988;BME280;35735;52.226;21.254;2024-02-15T05:09:13;100885.31;;;5.34;100.00
44988;BME280;35735;52.226;21.254;2024-02-15T05:14:14;100882.59;;;5.33;100.00
44988;BME280;35735;52.226;21.254;2024-02-15T05:19:17;100882.78;;;5.39;100.00
44988;BME280;35735;52.226;21.254;2024-02-15T05:24:18;100893.63;;;5.44;100.00
44988;BME280;35735;52.226;21.254;2024-02-15T05:29:20;100886.44;;;5.43;100.00
44988;BME280;35735;52.226;21.254;2024-02-15T05:34:21;100887.41;;;5.45;100.00
44988;BME280;35735;52.226;21.254;2024-02-15T05:39:22;100889.31;;;5.49;100.00
44988;BME280;35735;52.226;21.254;2024-02-15T05:44:23;100889.47;;;5.55;100.00
44988;BME280;35735;52.226;21.254;2024-02-15T05:49:27;100902.00;;;5.56;100.00
44988;BME280;35735;52.226;21.254;2024-02-15T05:54:28;100898.50;;;5.59;100.00
44988;BME280;35735;52.226;21.254;2024-02-15T05:59:29;100903.72;;;5.54;100.00
44988;BME280;35735;52.226;21.254;2024-02-15T06:04:31;100908.97;;;5.51;100.00
44988;BME280;35735;52.226;21.254;2024-02-15T06:09:32;100901.84;;;5.50;100.00
44988;BME280;35735;52.226;21.254;2024-02-15T06:14:33;100907.19;;;5.50;100.00
44988;BME280;35735;52.226;21.254;2024-02-15T06:19:35;100907.25;;;5.53;100.00
44988;BME280;35735;52.226;21.254;2024-02-15T06:24:36;100912.69;;;5.56;100.00
44988;BME280;35735;52.226;21.254;2024-02-15T06:29:37;100925.22;;;5.57;100.00
44988;BME280;35735;52.226;21.254;2024-02-15T06:34:39;100927.06;;;5.58;100.00
44988;BME280;35735;52.226;21.254;2024-02-15T06:39:40;100930.59;;;5.57;100.00
44988;BME280;35735;52.226;21.254;2024-02-15T06:44:42;100936.03;;;5.60;100.00
44988;BME280;35735;52.226;21.254;2024-02-15T06:49:45;100935.16;;;5.61;100.00
44988;BME280;35735;52.226;21.254;2024-02-15T06:54:47;100928.06;;;5.62;100.00
44988;BME280;35735;52.226;21.254;2024-02-15T06:59:48;100938.84;;;5.65;100.00
44988;BME280;35735;52.226;21.254;2024-02-15T07:04:49;100946.66;;;5.57;100.00
44988;BME280;35735;52.226;21.254;2024-02-15T07:09:51;100943.75;;;5.49;100.00
44988;BME280;35735;52.226;21.254;2024-02-15T07:14:52;100944.69;;;5.50;100.00
44988;BME280;35735;52.226;21.254;2024-02-15T07:19:53;100944.59;;;5.47;100.00
44988;BME280;35735;52.226;21.254;2024-02-15T07:24:55;100940.97;;;5.45;100.00
44988;BME280;35735;52.226;21.254;2024-02-15T07:29:56;100948.22;;;5.49;100.00
44988;BME280;35735;52.226;21.254;2024-02-15T07:34:57;100946.63;;;5.55;100.00
44988;BME280;35735;52.226;21.254;2024-02-15T07:39:59;100943.03;;;5.55;100.00
44988;BME280;35735;52.226;21.254;2024-02-15T07:45:01;100952.00;;;5.57;100.00
44988;BME280;35735;52.226;21.254;2024-02-15T07:50:02;100950.38;;;5.62;100.00
44988;BME280;35735;52.226;21.254;2024-02-15T07:55:04;100939.84;;;5.68;100.00
44988;BME280;35735;52.226;21.254;2024-02-15T08:00:09;100942.72;;;5.76;100.00
44988;BME280;35735;52.226;21.254;2024-02-15T08:05:11;100940.25;;;5.84;100.00
44988;BME280;35735;52.226;21.254;2024-02-15T08:10:13;100938.44;;;5.83;100.00
44988;BME280;35735;52.226;21.254;2024-02-15T08:15:14;100941.16;;;5.84;100.00
44988;BME280;35735;52.226;21.254;2024-02-15T08:20:16;100936.88;;;5.91;100.00
44988;BME280;35735;52.226;21.254;2024-02-15T08:25:17;100945.03;;;5.96;100.00
44988;BME280;35735;52.226;21.254;2024-02-15T08:30:19;100946.91;;;5.97;100.00
44988;BME280;35735;52.226;21.254;2024-02-15T08:35:20;100944.31;;;6.01;100.00
44988;BME280;35735;52.226;21.254;2024-02-15T08:40:21;100948.06;;;6.08;100.00
44988;BME280;35735;52.226;21.254;2024-02-15T08:45:22;100957.12;;;6.11;100.00
44988;BME280;35735;52.226;21.254;2024-02-15T08:50:24;100946.50;;;6.16;100.00
44988;BME280;35735;52.226;21.254;2024-02-15T08:55:25;100946.69;;;6.22;100.00
44988;BME280;35735;52.226;21.254;2024-02-15T09:00:26;100960.34;;;6.32;100.00
44988;BME280;35735;52.226;21.254;2024-02-15T09:05:28;100963.38;;;6.45;100.00
44988;BME280;35735;52.226;21.254;2024-02-15T09:10:29;100967.97;;;6.51;100.00
44988;BME280;35735;52.226;21.254;2024-02-15T09:15:30;100962.87;;;6.62;100.00
44988;BME280;35735;52.226;21.254;2024-02-15T09:20:32;100960.41;;;6.71;100.00
44988;BME280;35735;52.226;21.254;2024-02-15T09:25:33;100963.31;;;6.80;100.00
44988;BME280;35735;52.226;21.254;2024-02-15T09:30:34;100971.47;;;6.83;100.00
44988;BME280;35735;52.226;21.254;2024-02-15T09:35:36;100973.28;;;6.86;100.00
44988;BME280;35735;52.226;21.254;2024-02-15T09:40:37;100974.19;;;6.85;100.00
44988;BME280;35735;52.226;21.254;2024-02-15T09:45:38;100971.53;;;6.88;100.00
44988;BME280;35735;52.226;21.254;2024-02-15T09:50:41;100973.53;;;6.95;100.00
44988;BME280;35735;52.226;21.254;2024-02-15T09:55:43;100965.56;;;6.98;100.00
44988;BME280;35735;52.226;21.254;2024-02-15T10:00:44;100953.19;;;7.05;100.00
44988;BME280;35735;52.226;21.254;2024-02-15T10:05:48;100959.59;;;7.12;100.00
44988;BME280;35735;52.226;21.254;2024-02-15T10:11:05;100964.00;;;7.10;100.00
44988;BME280;35735;52.226;21.254;2024-02-15T10:16:18;100957.84;;;7.14;100.00
44988;BME280;35735;52.226;21.254;2024-02-15T10:21:27;100963.28;;;7.17;100.00
44988;BME280;35735;52.226;21.254;2024-02-15T10:26:28;100965.09;;;7.19;100.00
44988;BME280;35735;52.226;21.254;2024-02-15T10:31:29;100959.78;;;7.21;100.00
44988;BME280;35735;52.226;21.254;2024-02-15T10:36:31;100949.06;;;7.22;100.00
44988;BME280;35735;52.226;21.254;2024-02-15T10:41:32;100945.56;;;7.27;100.00
44988;BME280;35735;52.226;21.254;2024-02-15T10:46:35;100948.31;;;7.30;100.00
44988;BME280;35735;52.226;21.254;2024-02-15T10:51:39;100937.66;;;7.33;100.00
44988;BME280;35735;52.226;21.254;2024-02-15T10:56:47;100934.28;;;7.43;100.00
44988;BME280;35735;52.226;21.254;2024-02-15T11:01:53;100932.63;;;7.50;100.00
44988;BME280;35735;52.226;21.254;2024-02-15T11:07:00;100928.34;;;7.59;100.00
44988;BME280;35735;52.226;21.254;2024-02-15T11:12:03;100933.88;;;7.66;100.00
44988;BME280;35735;52.226;21.254;2024-02-15T11:17:06;100936.75;;;7.76;100.00
44988;BME280;35735;52.226;21.254;2024-02-15T11:22:09;100923.41;;;7.81;100.00
44988;BME280;35735;52.226;21.254;2024-02-15T11:27:10;100927.22;;;7.92;100.00
44988;BME280;35735;52.226;21.254;2024-02-15T11:32:41;100920.28;;;8.05;100.00
44988;BME280;35735;52.226;21.254;2024-02-15T11:42:51;100917.78;;;8.16;100.00
44988;BME280;35735;52.226;21.254;2024-02-15T11:47:56;100918.78;;;8.21;100.00
44988;BME280;35735;52.226;21.254;2024-02-15T11:53:02;100902.78;;;8.29;100.00
44988;BME280;35735;52.226;21.254;2024-02-15T11:58:05;100897.38;;;8.27;100.00
44988;BME280;35735;52.226;21.254;2024-02-15T12:03:09;100900.12;;;8.33;100.00
44988;BME280;35735;52.226;21.254;2024-02-15T12:08:11;100896.81;;;8.47;100.00
44988;BME280;35735;52.226;21.254;2024-02-15T12:13:17;100887.91;;;8.49;100.00
44988;BME280;35735;52.226;21.254;2024-02-15T12:18:19;100891.59;;;8.56;100.00
44988;BME280;35735;52.226;21.254;2024-02-15T12:23:20;100887.09;;;8.57;100.00
44988;BME280;35735;52.226;21.254;2024-02-15T12:28:22;100883.66;;;8.65;100.00
44988;BME280;35735;52.226;21.254;2024-02-15T12:33:23;100881.06;;;8.73;100.00
44988;BME280;35735;52.226;21.254;2024-02-15T12:38:24;100885.66;;;8.79;100.00
44988;BME280;35735;52.226;21.254;2024-02-15T12:43:26;100883.00;;;8.83;100.00
44988;BME280;35735;52.226;21.254;2024-02-15T12:48:27;100888.53;;;8.91;100.00
44988;BME280;35735;52.226;21.254;2024-02-15T12:53:28;100886.75;;;8.93;100.00
44988;BME280;35735;52.226;21.254;2024-02-15T12:58:30;100889.62;;;9.05;100.00
44988;BME280;35735;52.226;21.254;2024-02-15T13:03:31;100891.47;;;9.09;100.00
44988;BME280;35735;52.226;21.254;2024-02-15T13:08:32;100900.34;;;9.02;100.00
44988;BME280;35735;52.226;21.254;2024-02-15T13:13:33;100895.81;;;9.00;100.00
44988;BME280;35735;52.226;21.254;2024-02-15T13:18:35;100891.31;;;9.00;100.00
44988;BME280;35735;52.226;21.254;2024-02-15T13:23:36;100890.53;;;9.06;100.00
44988;BME280;35735;52.226;21.254;2024-02-15T13:28:37;100889.72;;;9.15;100.00
44988;BME280;35735;52.226;21.254;2024-02-15T13:33:39;100883.50;;;9.17;100.00
44988;BME280;35735;52.226;21.254;2024-02-15T13:38:40;100881.69;;;9.18;100.00
44988;BME280;35735;52.226;21.254;2024-02-15T13:43:42;100873.56;;;9.15;100.00
44988;BME280;35735;52.226;21.254;2024-02-15T13:48:43;100871.69;;;9.07;100.00
44988;BME280;35735;52.226;21.254;2024-02-15T13:53:44;100879.75;;;9.06;100.00
44988;BME280;35735;52.226;21.254;2024-02-15T13:58:46;100880.66;;;9.08;100.00
44988;BME280;35735;52.226;21.254;2024-02-15T14:03:47;100870.84;;;9.12;100.00
44988;BME280;35735;52.226;21.254;2024-02-15T14:08:48;100870.81;;;9.10;100.00
44988;BME280;35735;52.226;21.254;2024-02-15T14:13:49;100864.53;;;9.09;100.00
44988;BME280;35735;52.226;21.254;2024-02-15T14:18:51;100866.34;;;9.11;100.00
44988;BME280;35735;52.226;21.254;2024-02-15T14:23:52;100864.44;;;9.03;100.00
44988;BME280;35735;52.226;21.254;2024-02-15T14:28:53;100868.00;;;8.99;100.00
44988;BME280;35735;52.226;21.254;2024-02-15T14:33:55;100882.28;;;8.95;100.00
44988;BME280;35735;52.226;21.254;2024-02-15T14:38:57;100878.66;;;8.93;100.00
44988;BME280;35735;52.226;21.254;2024-02-15T14:43:58;100880.50;;;8.96;100.00
44988;BME280;35735;52.226;21.254;2024-02-15T14:48:59;100888.56;;;8.94;100.00
44988;BME280;35735;52.226;21.254;2024-02-15T14:54:01;100871.50;;;8.95;100.00
44988;BME280;35735;52.226;21.254;2024-02-15T14:59:02;100874.19;;;8.94;100.00
44988;BME280;35735;52.226;21.254;2024-02-15T15:04:03;100891.22;;;8.91;100.00
44988;BME280;35735;52.226;21.254;2024-02-15T15:09:05;100891.31;;;8.97;100.00
44988;BME280;35735;52.226;21.254;2024-02-15T15:14:06;100884.25;;;9.05;100.00
44988;BME280;35735;52.226;21.254;2024-02-15T15:19:08;100886.78;;;8.96;100.00
44988;BME280;35735;52.226;21.254;2024-02-15T15:24:09;100896.66;;;8.94;100.00
44988;BME280;35735;52.226;21.254;2024-02-15T15:29:10;100891.31;;;8.97;100.00
44988;BME280;35735;52.226;21.254;2024-02-15T15:34:12;100891.31;;;8.97;100.00
44988;BME280;35735;52.226;21.254;2024-02-15T15:39:13;100889.50;;;8.98;100.00
44988;BME280;35735;52.226;21.254;2024-02-15T15:44:15;100885.81;;;8.91;100.00
44988;BME280;35735;52.226;21.254;2024-02-15T15:49:16;100893.81;;;8.85;100.00
44988;BME280;35735;52.226;21.254;2024-02-15T15:54:17;100895.50;;;8.78;100.00
44988;BME280;35735;52.226;21.254;2024-02-15T15:59:19;100898.03;;;8.67;100.00
44988;BME280;35735;52.226;21.254;2024-02-15T16:04:20;100897.81;;;8.52;100.00
44988;BME280;35735;52.226;21.254;2024-02-15T16:09:21;100910.22;;;8.44;100.00
44988;BME280;35735;52.226;21.254;2024-02-15T16:14:23;100908.28;;;8.38;100.00
44988;BME280;35735;52.226;21.254;2024-02-15T16:19:24;100910.91;;;8.33;100.00
44988;BME280;35735;52.226;21.254;2024-02-15T16:24:25;100918.00;;;8.28;100.00
44988;BME280;35735;52.226;21.254;2024-02-15T16:29:26;100923.31;;;8.24;100.00
44988;BME280;35735;52.226;21.254;2024-02-15T16:34:28;100930.66;;;8.34;100.00
44988;BME280;35735;52.226;21.254;2024-02-15T16:39:29;100925.34;;;8.37;100.00
44988;BME280;35735;52.226;21.254;2024-02-15T16:44:30;100927.09;;;8.37;100.00
44988;BME280;35735;52.226;21.254;2024-02-15T16:49:32;100933.44;;;8.39;100.00
44988;BME280;35735;52.226;21.254;2024-02-15T16:54:33;100941.47;;;8.37;100.00
44988;BME280;35735;52.226;21.254;2024-02-15T16:59:35;100934.28;;;8.36;100.00
44988;BME280;35735;52.226;21.254;2024-02-15T17:04:36;100931.34;;;8.22;100.00
44988;BME280;35735;52.226;21.254;2024-02-15T17:09:38;100931.28;;;8.19;100.00
44988;BME280;35735;52.226;21.254;2024-02-15T17:14:39;100939.25;;;8.14;100.00
44988;BME280;35735;52.226;21.254;2024-02-15T17:19:40;100936.59;;;8.16;100.00
44988;BME280;35735;52.226;21.254;2024-02-15T17:24:42;100932.03;;;8.10;100.00
44988;BME280;35735;52.226;21.254;2024-02-15T17:29:43;100946.38;;;8.11;100.00
44988;BME280;35735;52.226;21.254;2024-02-15T17:34:44;100941.81;;;8.07;100.00
44988;BME280;35735;52.226;21.254;2024-02-15T17:39:46;100944.53;;;8.08;100.00
44988;BME280;35735;52.226;21.254;2024-02-15T17:44:47;100945.53;;;8.15;100.00
44988;BME280;35735;52.226;21.254;2024-02-15T17:49:48;100948.31;;;8.20;100.00
44988;BME280;35735;52.226;21.254;2024-02-15T17:54:50;100947.53;;;8.27;100.00
44988;BME280;35735;52.226;21.254;2024-02-15T17:59:51;100958.28;;;8.27;100.00
44988;BME280;35735;52.226;21.254;2024-02-15T18:04:53;100959.25;;;8.29;100.00
44988;BME280;35735;52.226;21.254;2024-02-15T18:09:55;100962.78;;;8.26;100.00
44988;BME280;35735;52.226;21.254;2024-02-15T18:14:57;100958.28;;;8.24;100.00
44988;BME280;35735;52.226;21.254;2024-02-15T18:19:58;100966.50;;;8.33;100.00
44988;BME280;35735;52.226;21.254;2024-02-15T18:24:59;100965.72;;;8.42;100.00
44988;BME280;35735;52.226;21.254;2024-02-15T18:30:01;100958.50;;;8.38;100.00
44988;BME280;35735;52.226;21.254;2024-02-15T18:35:05;100954.84;;;8.32;100.00
44988;BME280;35735;52.226;21.254;2024-02-15T18:40:07;100953.06;;;8.34;100.00
44988;BME280;35735;52.226;21.254;2024-02-15T18:45:09;100946.59;;;8.23;100.00
44988;BME280;35735;52.226;21.254;2024-02-15T18:50:10;100949.09;;;8.12;100.00
44988;BME280;35735;52.226;21.254;2024-02-15T18:55:12;100957.03;;;8.06;100.00
44988;BME280;35735;52.226;21.254;2024-02-15T19:00:14;100956.16;;;8.06;100.00
44988;BME280;35735;52.226;21.254;2024-02-15T19:05:15;100957.91;;;8.04;100.00
44988;BME280;35735;52.226;21.254;2024-02-15T19:10:18;100956.09;;;8.03;100.00
44988;BME280;35735;52.226;21.254;2024-02-15T19:15:19;100956.09;;;8.03;100.00
44988;BME280;35735;52.226;21.254;2024-02-15T19:20:21;100957.94;;;8.07;100.00
44988;BME280;35735;52.226;21.254;2024-02-15T19:25:22;100959.81;;;8.11;100.00
44988;BME280;35735;52.226;21.254;2024-02-15T19:30:23;100959.81;;;8.11;100.00
44988;BME280;35735;52.226;21.254;2024-02-15T19:35:24;100955.41;;;8.14;100.00
44988;BME280;35735;52.226;21.254;2024-02-15T19:40:26;100957.31;;;8.22;100.00
44988;BME280;35735;52.226;21.254;2024-02-15T19:45:27;100951.94;;;8.22;100.00
44988;BME280;35735;52.226;21.254;2024-02-15T19:50:28;100959.09;;;8.21;100.00
44988;BME280;35735;52.226;21.254;2024-02-15T19:55:31;100957.34;;;8.23;100.00
44988;BME280;35735;52.226;21.254;2024-02-15T20:00:32;100957.34;;;8.23;100.00
44988;BME280;35735;52.226;21.254;2024-02-15T20:05:33;100965.34;;;8.20;100.00
44988;BME280;35735;52.226;21.254;2024-02-15T20:10:35;100967.19;;;8.21;100.00
44988;BME280;35735;52.226;21.254;2024-02-15T20:15:36;100968.03;;;8.20;100.00
44988;BME280;35735;52.226;21.254;2024-02-15T20:20:37;100961.84;;;8.24;100.00
44988;BME280;35735;52.226;21.254;2024-02-15T20:25:39;100951.94;;;8.22;100.00
44988;BME280;35735;52.226;21.254;2024-02-15T20:30:41;100956.53;;;8.27;100.00
44988;BME280;35735;52.226;21.254;2024-02-15T20:35:42;100956.47;;;8.24;100.00
44988;BME280;35735;52.226;21.254;2024-02-15T20:40:44;100951.03;;;8.21;100.00
44988;BME280;35735;52.226;21.254;2024-02-15T20:45:46;100947.34;;;8.14;100.00
44988;BME280;35735;52.226;21.254;2024-02-15T20:50:48;100945.41;;;8.07;100.00
44988;BME280;35735;52.226;21.254;2024-02-15T20:55:49;100948.94;;;8.05;100.00
44988;BME280;35735;52.226;21.254;2024-02-15T21:00:51;100948.94;;;8.05;100.00
44988;BME280;35735;52.226;21.254;2024-02-15T21:05:52;100940.78;;;8.00;100.00
44988;BME280;35735;52.226;21.254;2024-02-15T21:10:53;100941.63;;;7.96;100.00
44988;BME280;35735;52.226;21.254;2024-02-15T21:15:55;100952.41;;;7.97;100.00
44988;BME280;35735;52.226;21.254;2024-02-15T21:20:56;100938.03;;;7.95;100.00
44988;BME280;35735;52.226;21.254;2024-02-15T21:25:57;100930.72;;;7.88;100.00
44988;BME280;35735;52.226;21.254;2024-02-15T21:30:58;100932.47;;;7.86;100.00
44988;BME280;35735;52.226;21.254;2024-02-15T21:36:00;100937.84;;;7.86;100.00
44988;BME280;35735;52.226;21.254;2024-02-15T21:41:01;100946.84;;;7.88;100.00
44988;BME280;35735;52.226;21.254;2024-02-15T21:46:03;100950.31;;;7.83;100.00
44988;BME280;35735;52.226;21.254;2024-02-15T21:51:05;100944.03;;;7.81;100.00
44988;BME280;35735;52.226;21.254;2024-02-15T21:56:07;100938.53;;;7.76;100.00
44988;BME280;35735;52.226;21.254;2024-02-15T22:01:08;100943.00;;;7.74;100.00
44988;BME280;35735;52.226;21.254;2024-02-15T22:06:28;100944.72;;;7.70;100.00
44988;BME280;35735;52.226;21.254;2024-02-15T22:11:29;100950.13;;;7.72;100.00
44988;BME280;35735;52.226;21.254;2024-02-15T22:16:31;100949.16;;;7.70;100.00
44988;BME280;35735;52.226;21.254;2024-02-15T22:21:32;100938.25;;;7.60;100.00
44988;BME280;35735;52.226;21.254;2024-02-15T22:26:33;100940.00;;;7.58;100.00
44988;BME280;35735;52.226;21.254;2024-02-15T22:31:35;100944.44;;;7.58;100.00
44988;BME280;35735;52.226;21.254;2024-02-15T22:36:36;100943.62;;;7.60;100.00
44988;BME280;35735;52.226;21.254;2024-02-15T22:41:37;100944.53;;;7.63;100.00
44988;BME280;35735;52.226;21.254;2024-02-15T22:46:46;100944.47;;;7.59;100.00
44988;BME280;35735;52.226;21.254;2024-02-15T22:51:50;100955.22;;;7.59;100.00
44988;BME280;35735;52.226;21.254;2024-02-15T22:56:51;100950.75;;;7.60;100.00
44988;BME280;35735;52.226;21.254;2024-02-15T23:01:53;100958.81;;;7.58;100.00
44988;BME280;35735;52.226;21.254;2024-02-15T23:06:54;100965.16;;;7.62;100.00
44988;BME280;35735;52.226;21.254;2024-02-15T23:11:55;100953.53;;;7.65;100.00
44988;BME280;35735;52.226;21.254;2024-02-15T23:16:56;100962.47;;;7.62;100.00
44988;BME280;35735;52.226;21.254;2024-02-15T23:21:58;100955.37;;;7.66;100.00
44988;BME280;35735;52.226;21.254;2024-02-15T23:26:59;100965.22;;;7.67;100.00
44988;BME280;35735;52.226;21.254;2024-02-15T23:32:01;100964.31;;;7.66;100.00
44988;BME280;35735;52.226;21.254;2024-02-15T23:37:02;100964.25;;;7.63;100.00
44988;BME280;35735;52.226;21.254;2024-02-15T23:42:04;100968.81;;;7.66;100.00
44988;BME280;35735;52.226;21.254;2024-02-15T23:47:05;100977.78;;;7.68;100.00
44988;BME280;35735;52.226;21.254;2024-02-15T23:52:07;100976.81;;;7.64;100.00
44988;BME280;35735;52.226;21.254;2024-02-15T23:57:08;100977.69;;;7.63;100.00
